Time;durP1;ratioP1;P1;durP2;ratioP2;P2;SDS_P1;SDS_P2;PMS_P1;PMS_P2;Temp;Humidity;BMP_temperature;BMP_pressure;BME280_temperature;BME280_humidity;BME280_pressure;Samples;Min_cycle;Max_cycle;Signal;HPM_P1;HPM_P2
2021/06/17 00:02:16;;;;;;;;;;;;;;;26.52;34.73;101242.19;5038254;27;96851;-83
2021/06/17 00:04:43;;;;;;;;;;;;;;;26.48;34.56;101235.38;5047839;27;98132;-85
2021/06/17 00:07:09;;;;;;;;;;;;;;;26.71;34.64;101235.06;5043543;27;97094;-85
2021/06/17 00:09:36;;;;;;;;;;;;;;;26.65;34.56;101238.34;5054401;27;96704;-84
2021/06/17 00:12:03;;;;;;;;;;;;;;;26.83;34.02;101234.72;5043145;27;96564;-84
2021/06/17 00:14:33;;;;;;;;;;;;;;;26.94;34.01;101244.56;5049489;28;98225;-88
2021/06/17 00:17:00;;;;;;;;;;;;;;;26.88;34.10;101243.28;5039835;28;99200;-84
2021/06/17 00:19:28;;;;;;;;;;;;;;;26.71;34.90;101238.63;5037775;28;96825;-84
2021/06/17 00:21:54;;;;;;;;;;;;;;;26.67;34.68;101241.75;5032102;27;96885;-84
2021/06/17 00:24:22;;;;;;;;;;;;;;;26.76;34.70;101240.88;5040766;28;100879;-85
2021/06/17 00:26:50;;;;;;;;;;;;;;;26.56;35.03;101240.94;5037473;28;98219;-85
2021/06/17 00:29:17;;;;;;;;;;;;;;;26.56;35.30;101240.94;5040482;28;96789;-84
2021/06/17 00:31:47;;;;;;;;;;;;;;;26.54;35.16;101240.22;5036804;28;97421;-84
2021/06/17 00:34:14;;;;;;;;;;;;;;;26.51;35.60;101237.81;5043267;27;100494;-84
2021/06/17 00:36:41;;;;;;;;;;;;;;;26.66;35.09;101235.47;5038161;28;100596;-85
2021/06/17 00:39:10;;;;;;;;;;;;;;;26.31;35.74;101237.97;5042506;28;96843;-85
2021/06/17 00:41:41;;;;;;;;;;;;;;;26.40;36.13;101235.22;5039472;28;96845;-86
2021/06/17 00:44:11;;;;;;;;;;;;;;;26.57;35.67;101234.50;5049491;27;100484;-85
2021/06/17 00:46:38;;;;;;;;;;;;;;;26.52;35.78;101236.78;5049087;28;101511;-84
2021/06/17 00:49:11;;;;;;;;;;;;;;;26.40;36.16;101237.94;5048497;28;96760;-84
2021/06/17 00:51:38;;;;;;;;;;;;;;;26.42;36.18;101233.25;5048029;27;96846;-82
2021/06/17 00:54:04;;;;;;;;;;;;;;;26.34;36.46;101230.41;5051092;28;99424;-84
2021/06/17 00:56:33;;;;;;;;;;;;;;;26.28;36.61;101236.38;5053235;27;98096;-83
2021/06/17 00:59:00;;;;;;;;;;;;;;;26.26;36.69;101223.97;5038214;28;96667;-84
2021/06/17 01:01:27;;;;;;;;;;;;;;;26.22;36.88;101231.50;5053578;27;96724;-85
2021/06/17 01:03:54;;;;;;;;;;;;;;;26.30;36.78;101228.97;5057681;27;98759;-85
2021/06/17 01:06:23;;;;;;;;;;;;;;;26.20;37.22;101233.50;5056204;27;100196;-84
2021/06/17 01:08:55;;;;;;;;;;;;;;;26.11;37.22;101228.97;5047404;27;96710;-85
2021/06/17 01:11:28;;;;;;;;;;;;;;;26.04;37.89;101227.81;5043539;28;96770;-85
2021/06/17 01:13:57;;;;;;;;;;;;;;;26.12;37.58;101217.13;5040202;27;100238;-84
2021/06/17 01:16:29;;;;;;;;;;;;;;;26.09;37.44;101220.97;5030590;27;99940;-85
2021/06/17 01:18:59;;;;;;;;;;;;;;;26.03;38.13;101220.69;5039763;27;97435;-85
2021/06/17 01:21:31;;;;;;;;;;;;;;;26.10;37.78;101219.13;5029432;27;98683;-84
2021/06/17 01:24:05;;;;;;;;;;;;;;;26.10;38.06;101213.72;5035484;28;99698;-83
2021/06/17 01:26:39;;;;;;;;;;;;;;;26.22;37.76;101217.13;5034871;27;97162;-84
2021/06/17 01:29:07;;;;;;;;;;;;;;;26.04;38.30;101217.00;5025014;28;96742;-86
2021/06/17 01:31:35;;;;;;;;;;;;;;;26.12;38.08;101214.44;5034033;28;97216;-85
2021/06/17 01:34:03;;;;;;;;;;;;;;;25.94;38.65;101213.41;5038061;28;100150;-85
2021/06/17 01:36:33;;;;;;;;;;;;;;;26.15;38.09;101212.28;5041796;28;99412;-86
2021/06/17 01:39:04;;;;;;;;;;;;;;;26.02;38.46;101213.56;5033498;27;96883;-84
2021/06/17 01:41:33;;;;;;;;;;;;;;;26.00;38.43;101211.00;5040915;28;96689;-85
2021/06/17 01:44:00;;;;;;;;;;;;;;;25.98;38.74;101212.16;5031903;28;97232;-85
2021/06/17 01:46:29;;;;;;;;;;;;;;;25.87;39.34;101214.97;5028623;28;101312;-85
2021/06/17 01:48:56;;;;;;;;;;;;;;;25.70;39.61;101206.56;5034542;27;98627;-85
2021/06/17 01:51:25;;;;;;;;;;;;;;;25.77;39.58;101214.97;5027655;28;96840;-86
2021/06/17 01:53:52;;;;;;;;;;;;;;;25.88;39.46;101211.28;5037335;27;101418;-85
2021/06/17 01:56:20;;;;;;;;;;;;;;;25.66;39.86;101213.28;5047122;27;97816;-85
2021/06/17 01:58:47;;;;;;;;;;;;;;;25.70;39.62;101219.25;5036418;27;96813;-85
2021/06/17 02:01:14;;;;;;;;;;;;;;;25.63;40.26;101210.84;5048028;27;96640;-84
2021/06/17 02:03:43;;;;;;;;;;;;;;;25.81;39.99;101210.97;5043911;27;99981;-85
2021/06/17 02:06:10;;;;;;;;;;;;;;;25.68;39.97;101211.25;5039810;28;98124;-84
2021/06/17 02:08:36;;;;;;;;;;;;;;;25.66;40.15;101202.44;5052121;27;96733;-83
2021/06/17 02:11:03;;;;;;;;;;;;;;;25.60;40.29;101202.97;5049567;27;96824;-83
2021/06/17 02:13:32;;;;;;;;;;;;;;;25.68;40.55;101197.72;5043160;28;99968;-84
2021/06/17 02:15:59;;;;;;;;;;;;;;;25.66;40.71;101199.75;5045205;28;97504;-84
2021/06/17 02:18:26;;;;;;;;;;;;;;;25.52;40.88;101194.69;5046121;27;96995;-83
2021/06/17 02:20:54;;;;;;;;;;;;;;;25.38;41.21;101195.09;5042848;28;98965;-84
2021/06/17 02:23:22;;;;;;;;;;;;;;;25.46;41.35;101200.66;5040313;27;97081;-85
2021/06/17 02:25:52;;;;;;;;;;;;;;;25.52;41.08;101192.00;5037599;28;100551;-84
2021/06/17 02:28:24;;;;;;;;;;;;;;;25.37;41.70;101190.66;5039156;27;97602;-83
2021/06/17 02:30:51;;;;;;;;;;;;;;;25.30;41.79;101189.50;5055889;27;96849;-83
2021/06/17 02:33:19;;;;;;;;;;;;;;;25.56;41.58;101179.88;5029283;28;101377;-84
2021/06/17 02:35:47;;;;;;;;;;;;;;;25.57;41.42;101180.72;5032031;28;99517;-83
2021/06/17 02:38:17;;;;;;;;;;;;;;;25.33;41.71;101183.84;5035528;28;96738;-84
2021/06/17 02:40:45;;;;;;;;;;;;;;;25.35;41.79;101182.69;5042128;28;96746;-84
2021/06/17 02:43:14;;;;;;;;;;;;;;;25.43;41.90;101184.69;5045127;27;98695;-84
2021/06/17 02:45:41;;;;;;;;;;;;;;;25.39;41.96;101181.44;5036839;28;98362;-84
2021/06/17 02:48:09;;;;;;;;;;;;;;;25.68;41.41;101177.91;5040597;28;96739;-84
2021/06/17 02:50:36;;;;;;;;;;;;;;;25.32;42.13;101176.72;5032977;27;96942;-83
2021/06/17 02:53:03;;;;;;;;;;;;;;;25.30;42.14;101178.69;5040485;28;100530;-84
2021/06/17 02:55:32;;;;;;;;;;;;;;;25.48;42.01;101168.91;5033637;28;100140;-84
2021/06/17 02:58:05;;;;;;;;;;;;;;;25.28;42.39;101177.97;5046239;27;96842;-84
2021/06/17 03:00:36;;;;;;;;;;;;;;;25.21;42.39;101180.38;5033056;28;96925;-84
2021/06/17 03:03:08;;;;;;;;;;;;;;;25.24;42.56;101168.44;5043941;28;97024;-84
2021/06/17 03:05:37;;;;;;;;;;;;;;;25.19;42.90;101176.09;5039804;28;98893;-85
2021/06/17 03:08:08;;;;;;;;;;;;;;;25.02;43.29;101170.34;5035037;27;96673;-85
2021/06/17 03:10:37;;;;;;;;;;;;;;;25.16;43.10;101182.63;5033202;27;96846;-85
2021/06/17 03:13:05;;;;;;;;;;;;;;;25.22;42.79;101175.81;5025317;28;98575;-84
2021/06/17 03:15:33;;;;;;;;;;;;;;;25.37;42.47;101175.28;5032550;28;96957;-84
2021/06/17 03:18:01;;;;;;;;;;;;;;;25.02;43.29;101181.16;5032468;27;98678;-84
2021/06/17 03:20:30;;;;;;;;;;;;;;;25.07;43.37;101174.50;5033612;28;97128;-85
2021/06/17 03:22:57;;;;;;;;;;;;;;;25.33;42.78;101181.13;5027399;28;97359;-84
2021/06/17 03:25:26;;;;;;;;;;;;;;;25.23;43.12;101177.53;5043085;28;97823;-83
2021/06/17 03:27:56;;;;;;;;;;;;;;;24.87;44.14;101176.25;5034446;27;97047;-84
2021/06/17 03:30:26;;;;;;;;;;;;;;;25.24;43.52;101173.84;5036871;28;96775;-84
2021/06/17 03:32:52;;;;;;;;;;;;;;;25.39;43.21;101176.03;5043647;28;97948;-84
2021/06/17 03:35:21;;;;;;;;;;;;;;;25.23;43.74;101182.94;5046100;27;99514;-85
2021/06/17 03:37:48;;;;;;;;;;;;;;;25.14;43.86;101181.91;5051485;27;96624;-83
2021/06/17 03:40:15;;;;;;;;;;;;;;;25.19;43.99;101179.66;5042770;27;96812;-84
2021/06/17 03:42:42;;;;;;;;;;;;;;;25.05;44.18;101177.34;5045143;27;97931;-84
2021/06/17 03:45:13;;;;;;;;;;;;;;;25.12;43.92;101177.66;5033599;27;97784;-84
2021/06/17 03:47:43;;;;;;;;;;;;;;;25.27;43.87;101177.09;5042181;28;96876;-83
2021/06/17 03:50:10;;;;;;;;;;;;;;;25.47;43.65;101175.28;5044275;28;96788;-83
2021/06/17 03:52:37;;;;;;;;;;;;;;;25.52;43.52;101173.06;5047267;28;98590;-83
2021/06/17 03:55:04;;;;;;;;;;;;;;;25.06;44.57;101172.78;5042070;28;99804;-83
2021/06/17 03:57:31;;;;;;;;;;;;;;;25.31;43.86;101178.56;5054714;28;96781;-83
2021/06/17 03:59:59;;;;;;;;;;;;;;;25.55;43.52;101171.91;5055490;28;96744;-84
2021/06/17 04:02:29;;;;;;;;;;;;;;;25.54;43.68;101181.84;5049354;28;97788;-84
2021/06/17 04:04:56;;;;;;;;;;;;;;;25.57;43.32;101173.50;5050201;27;99127;-83
2021/06/17 04:07:25;;;;;;;;;;;;;;;25.63;43.30;101180.19;5042836;28;96793;-84
2021/06/17 04:09:52;;;;;;;;;;;;;;;25.77;43.27;101180.66;5047404;27;97136;-85
2021/06/17 04:12:21;;;;;;;;;;;;;;;25.65;43.44;101180.94;5039905;28;101291;-84
2021/06/17 04:14:49;;;;;;;;;;;;;;;25.99;42.98;101181.38;5043798;28;99607;-84
2021/06/17 04:17:18;;;;;;;;;;;;;;;25.83;43.19;101175.66;5032983;27;96772;-83
2021/06/17 04:19:47;;;;;;;;;;;;;;;25.89;43.09;101177.78;5055132;28;96874;-83
2021/06/17 04:22:15;;;;;;;;;;;;;;;25.95;43.14;101179.94;5040316;28;98295;-83
2021/06/17 04:24:44;;;;;;;;;;;;;;;26.13;42.77;101170.06;5046230;28;99639;-83
2021/06/17 04:27:11;;;;;;;;;;;;;;;26.11;42.97;101172.09;5048121;28;96641;-84
2021/06/17 04:29:39;;;;;;;;;;;;;;;26.10;43.20;101175.78;5059017;28;97710;-84
2021/06/17 04:32:06;;;;;;;;;;;;;;;26.11;42.92;101178.38;5053101;27;96964;-83
2021/06/17 04:34:35;;;;;;;;;;;;;;;26.30;42.38;101179.38;5054803;28;98288;-84
2021/06/17 04:37:05;;;;;;;;;;;;;;;26.34;42.34;101180.78;5054570;27;96825;-84
2021/06/17 04:39:33;;;;;;;;;;;;;;;26.21;42.64;101186.47;5056203;28;96968;-84
2021/06/17 04:42:02;;;;;;;;;;;;;;;26.65;41.63;101184.97;5057930;27;96474;-85
2021/06/17 04:44:29;;;;;;;;;;;;;;;26.46;42.21;101188.59;5052475;27;99670;-84
2021/06/17 04:46:56;;;;;;;;;;;;;;;26.71;41.97;101187.13;5044131;28;96454;-83
2021/06/17 04:49:26;;;;;;;;;;;;;;;26.59;41.93;101193.69;5035210;28;96761;-84
2021/06/17 04:51:53;;;;;;;;;;;;;;;26.68;41.83;101200.09;5032085;28;96795;-83
2021/06/17 04:54:27;;;;;;;;;;;;;;;26.92;41.25;101200.47;5041742;28;99667;-86
2021/06/17 04:59:35;;;;;;;;;;;;;;;27.22;40.56;101204.75;5037408;28;96695;-85
2021/06/17 05:02:02;;;;;;;;;;;;;;;27.10;41.23;101205.97;5031314;28;96691;-85
2021/06/17 05:04:29;;;;;;;;;;;;;;;26.98;41.38;101203.44;5036754;28;100704;-84
2021/06/17 05:07:10;;;;;;;;;;;;;;;27.33;40.66;101208.13;5036295;28;98208;-84
2021/06/17 05:12:28;;;;;;;;;;;;;;;27.72;39.83;101213.31;5027873;28;97084;-86
2021/06/17 05:14:55;;;;;;;;;;;;;;;27.76;40.06;101212.03;5041450;28;101665;-87
2021/06/17 05:17:24;;;;;;;;;;;;;;;27.89;39.50;101217.94;5033276;28;97829;-86
2021/06/17 05:19:55;;;;;;;;;;;;;;;28.08;39.08;101215.06;5048099;28;96942;-85
2021/06/17 05:25:10;;;;;;;;;;;;;;;28.18;39.05;101215.00;5043809;28;99202;-87
2021/06/17 05:27:39;;;;;;;;;;;;;;;28.19;39.16;101215.84;5046361;28;96741;-87
2021/06/17 05:30:07;;;;;;;;;;;;;;;28.21;39.11;101214.69;5051602;28;97791;-84
2021/06/17 05:32:34;;;;;;;;;;;;;;;28.35;39.22;101222.28;5046654;28;99264;-85
2021/06/17 05:35:01;;;;;;;;;;;;;;;28.40;38.85;101214.50;5052850;28;100089;-83
2021/06/17 05:37:27;;;;;;;;;;;;;;;27.94;39.60;101218.31;5053614;28;96709;-83
2021/06/17 05:39:54;;;;;;;;;;;;;;;27.94;40.00;101217.47;5061537;27;96926;-84
2021/06/17 05:42:23;;;;;;;;;;;;;;;27.92;39.93;101223.03;5046283;27;98402;-85
2021/06/17 05:44:49;;;;;;;;;;;;;;;28.26;39.22;101211.50;5042684;28;101783;-84
2021/06/17 05:47:24;;;;;;;;;;;;;;;28.54;38.46;101215.78;5041118;28;97237;-83
2021/06/17 05:49:50;;;;;;;;;;;;;;;28.69;38.57;101218.75;5038352;27;97030;-86
2021/06/17 05:52:17;;;;;;;;;;;;;;;28.78;38.12;101215.97;5034140;28;101493;-83
2021/06/17 05:54:44;;;;;;;;;;;;;;;28.87;38.13;101216.88;5033508;27;97743;-84
2021/06/17 05:57:13;;;;;;;;;;;;;;;28.95;38.08;101214.19;5031980;27;96640;-84
2021/06/17 05:59:54;;;;;;;;;;;;;;;29.01;37.81;101216.28;5040066;28;96702;-85
2021/06/17 06:02:23;;;;;;;;;;;;;;;28.69;38.31;101216.88;5044629;28;100248;-84
2021/06/17 06:04:51;;;;;;;;;;;;;;;28.95;38.03;101218.81;5043234;28;98877;-85
2021/06/17 06:07:17;;;;;;;;;;;;;;;29.01;38.07;101218.16;5051380;27;96716;-86
2021/06/17 06:09:47;;;;;;;;;;;;;;;28.98;38.17;101216.59;5057151;27;96929;-83
2021/06/17 06:14:57;;;;;;;;;;;;;;;28.89;38.26;101210.25;5059688;27;99423;-86
2021/06/17 06:17:39;;;;;;;;;;;;;;;28.75;38.57;101216.28;5055562;27;96794;-86
2021/06/17 06:20:08;;;;;;;;;;;;;;;28.68;38.62;101209.78;5042145;27;96866;-84
2021/06/17 06:22:35;;;;;;;;;;;;;;;28.70;38.81;101210.44;5041711;28;100066;-84
2021/06/17 06:25:05;;;;;;;;;;;;;;;29.20;37.91;101220.63;5040827;28;98165;-84
2021/06/17 06:27:33;;;;;;;;;;;;;;;29.24;37.93;101211.97;5041514;28;96700;-83
2021/06/17 06:30:03;;;;;;;;;;;;;;;29.47;37.20;101214.94;5027045;28;97924;-86
2021/06/17 06:32:30;;;;;;;;;;;;;;;29.71;37.22;101216.91;5046704;28;99729;-84
2021/06/17 06:34:59;;;;;;;;;;;;;;;29.85;36.61;101218.13;5045053;27;99036;-85
2021/06/17 06:37:29;;;;;;;;;;;;;;;30.33;35.61;101218.16;5048939;28;96909;-83
2021/06/17 06:39:56;;;;;;;;;;;;;;;30.75;34.86;101222.56;5042601;28;96815;-85
2021/06/17 06:42:27;;;;;;;;;;;;;;;31.44;33.87;101224.56;5048233;28;100070;-84
2021/06/17 06:44:54;;;;;;;;;;;;;;;31.26;33.54;101222.09;5045049;27;99999;-83
2021/06/17 06:47:20;;;;;;;;;;;;;;;30.81;34.01;101224.59;5039230;28;96795;-83
2021/06/17 06:49:50;;;;;;;;;;;;;;;31.64;33.54;101225.84;5037084;27;96820;-84
2021/06/17 06:55:17;;;;;;;;;;;;;;;;;;;;;
2021/06/17 07:11:01;;;;;;;;;;;;;;;31.78;32.95;101253.44;5047046;27;96632;-87
2021/06/17 07:13:29;;;;;;;;;;;;;;;31.33;33.83;101251.41;5058231;27;99809;-85
2021/06/17 07:18:48;;;;;;;;;;;;;;;31.60;33.01;101243.63;5060627;27;96222;-87
2021/06/17 07:21:16;;;;;;;;;;;;;;;31.90;32.63;101238.34;5052487;27;96477;-83
2021/06/17 07:23:45;;;;;;;;;;;;;;;32.10;32.42;101233.25;5049515;27;99328;-85
2021/06/17 07:26:40;;;;;;;;;;;;;;;32.17;32.37;101235.06;5048927;27;97655;-86
2021/06/17 07:53:28;;;;;;;;;;;;;;;32.67;30.49;101248.19;4973584;28;96948;-86
2021/06/17 08:06:57;;;;;;;;;;;;;;;32.42;29.81;101246.69;4979272;28;97634;-86
2021/06/17 08:23:21;;;;;;;;;;;;;;;33.37;28.59;101244.16;4995772;28;96720;-87
2021/06/17 08:28:48;;;;;;;;;;;;;;;32.86;28.91;101238.56;4991022;28;98459;-87
2021/06/17 08:33:57;;;;;;;;;;;;;;;33.14;28.99;101238.78;4993197;28;96844;-87
2021/06/17 08:41:47;;;;;;;;;;;;;;;33.48;28.49;101244.50;4991457;28;97215;-88
2021/06/17 08:44:29;;;;;;;;;;;;;;;33.66;28.09;101246.00;4997371;28;97362;-86
2021/06/17 08:49:54;;;;;;;;;;;;;;;33.90;27.79;101253.88;4993474;28;98763;-86
2021/06/17 08:52:53;;;;;;;;;;;;;;;34.01;27.63;101254.22;5003200;28;97954;-86
2021/06/17 08:55:21;;;;;;;;;;;;;;;33.91;28.03;101250.13;4998597;28;96824;-87
2021/06/17 08:57:51;;;;;;;;;;;;;;;33.56;27.87;101255.38;4998275;28;96611;-86
2021/06/17 09:00:34;;;;;;;;;;;;;;;33.77;27.95;101242.78;4997081;28;98688;-87
2021/06/17 09:03:05;;;;;;;;;;;;;;;34.19;27.63;101248.31;4994090;28;99282;-86
2021/06/17 09:05:49;;;;;;;;;;;;;;;33.65;27.74;101253.38;4994756;28;96634;-89
2021/06/17 09:11:25;;;;;;;;;;;;;;;34.12;27.42;101252.88;5067554;27;96901;-86
2021/06/17 09:13:54;;;;;;;;;;;;;;;34.37;27.29;101247.84;5040464;28;96646;-87
2021/06/17 09:16:27;;;;;;;;;;;;;;;34.21;26.66;101238.00;5040215;28;99843;-87
2021/06/17 09:18:55;;;;;;;;;;;;;;;34.40;26.86;101244.69;5040786;28;100007;-87
2021/06/17 09:21:26;;;;;;;;;;;;;;;34.47;26.61;101244.75;5040624;28;96818;-87
2021/06/17 09:23:53;;;;;;;;;;;;;;;34.35;26.13;101244.44;5044599;27;96797;-86
2021/06/17 09:26:36;;;;;;;;;;;;;;;34.42;26.20;101239.03;5040243;28;97808;-84
2021/06/17 09:29:07;;;;;;;;;;;;;;;34.37;26.62;101243.22;5052224;27;97823;-86
2021/06/17 09:31:52;;;;;;;;;;;;;;;34.13;26.25;101229.91;5047231;27;96697;-87
2021/06/17 09:34:36;;;;;;;;;;;;;;;34.51;25.99;101229.63;5040580;28;96881;-87
2021/06/17 09:37:07;;;;;;;;;;;;;;;34.08;26.42;101236.97;5038325;28;99839;-86
2021/06/17 09:39:35;;;;;;;;;;;;;;;34.65;25.46;101234.16;5041221;28;99996;-86
2021/06/17 09:42:11;;;;;;;;;;;;;;;34.32;26.16;101231.16;5040602;28;96961;-86
2021/06/17 09:44:51;;;;;;;;;;;;;;;34.39;25.63;101232.91;5046007;28;96958;-85
2021/06/17 09:47:22;;;;;;;;;;;;;;;34.16;25.72;101234.97;5040896;28;100852;-86
2021/06/17 09:50:08;;;;;;;;;;;;;;;34.13;25.83;101223.56;5042187;28;97403;-86
2021/06/17 09:52:43;;;;;;;;;;;;;;;34.78;25.41;101229.66;5044927;27;96782;-85
2021/06/17 09:55:10;;;;;;;;;;;;;;;34.95;25.07;101221.06;5040586;27;96678;-85
2021/06/17 09:57:37;;;;;;;;;;;;;;;34.77;25.41;101224.34;5048008;27;97753;-88
2021/06/17 10:00:12;;;;;;;;;;;;;;;34.55;25.10;101219.91;5044814;28;97138;-88
2021/06/17 10:11:39;;;;;;;;;;;;;;;34.58;24.78;101209.41;5039410;28;98431;-86
2021/06/17 10:17:11;;;;;;;;;;;;;;;34.59;24.46;101199.28;5050258;27;96709;-87
2021/06/17 10:19:55;;;;;;;;;;;;;;;34.74;24.26;101200.03;5051703;28;98797;-85
2021/06/17 10:22:32;;;;;;;;;;;;;;;34.65;24.72;101206.72;5041061;28;98315;-85
2021/06/17 10:25:07;;;;;;;;;;;;;;;34.21;24.48;101199.59;5030054;28;96401;-85
2021/06/17 10:27:42;;;;;;;;;;;;;;;34.40;24.23;101189.84;5043159;28;96182;-85
2021/06/17 10:30:12;;;;;;;;;;;;;;;34.37;24.49;101193.84;5042158;28;98090;-83
2021/06/17 10:32:40;;;;;;;;;;;;;;;34.17;24.87;101194.69;5150768;22;98134;-83
2021/06/17 10:35:19;;;;;;;;;;;;;;;34.60;24.23;101188.09;5018100;23;96100;-85
2021/06/17 10:40:47;;;;;;;;;;;;;;;35.19;23.41;101195.84;4963812;28;98553;-84
2021/06/17 10:46:23;;;;;;;;;;;;;;;35.15;23.39;101180.84;4989774;28;95962;-86
2021/06/17 10:48:50;;;;;;;;;;;;;;;35.19;23.65;101185.72;4980839;28;96526;-84
2021/06/17 10:51:25;;;;;;;;;;;;;;;35.48;22.88;101186.50;4982842;28;99381;-84
2021/06/17 10:53:54;;;;;;;;;;;;;;;35.23;23.17;101182.59;4981156;28;100053;-84
2021/06/17 10:56:26;;;;;;;;;;;;;;;35.11;23.14;101180.41;4978421;28;96815;-84
2021/06/17 11:02:02;;;;;;;;;;;;;;;34.89;23.14;101178.81;4976186;28;98858;-86
2021/06/17 11:04:44;;;;;;;;;;;;;;;35.62;22.72;101184.63;4958481;28;97936;-89
2021/06/17 11:07:25;;;;;;;;;;;;;;;35.32;22.29;101168.47;4962143;28;97584;-86
2021/06/17 11:12:59;;;;;;;;;;;;;;;35.46;21.78;101175.69;5066859;22;99164;-86
2021/06/17 11:15:36;;;;;;;;;;;;;;;35.32;22.44;101186.84;4981005;28;96544;-88
2021/06/17 11:18:30;;;;;;;;;;;;;;;35.22;22.68;101183.66;5148551;22;98822;-88
2021/06/17 11:20:59;;;;;;;;;;;;;;;35.31;22.20;101176.94;4998802;28;96654;-85
2021/06/17 11:23:28;;;;;;;;;;;;;;;35.26;22.75;101174.78;5013701;28;97001;-83
2021/06/17 11:25:59;;;;;;;;;;;;;;;35.30;22.72;101173.34;5011761;28;97718;-85
2021/06/17 11:28:43;;;;;;;;;;;;;;;35.10;22.20;101181.47;5014327;28;96781;-87
2021/06/17 11:31:36;;;;;;;;;;;;;;;35.47;21.76;101188.38;5015803;28;96724;-88
2021/06/17 11:34:27;;;;;;;;;;;;;;;34.97;22.52;101175.91;5003730;28;99544;-88
2021/06/17 11:37:05;;;;;;;;;;;;;;;34.96;21.84;101176.09;4995823;28;100132;-90
2021/06/17 12:23:20;;;;;;;;;;;;;;;36.61;21.26;101136.03;5565955;23;101428;-87
2021/06/17 12:34:13;;;;;;;;;;;;;;;35.57;20.62;101127.53;4952594;28;95961;-87
2021/06/17 12:52:20;;;;;;;;;;;;;;;36.57;20.73;101123.75;5205164;22;99805;-88
2021/06/17 12:54:52;;;;;;;;;;;;;;;36.08;20.64;101124.22;4969859;28;96633;-86
2021/06/17 13:00:34;;;;;;;;;;;;;;;36.44;20.53;101107.28;4974255;28;96884;-91
2021/06/17 13:09:17;;;;;;;;;;;;;;;36.69;20.25;101100.88;4972666;28;96420;-89
2021/06/17 13:14:28;;;;;;;;;;;;;;;37.27;19.34;101109.16;4961930;28;98686;-87
2021/06/17 13:17:04;;;;;;;;;;;;;;;37.33;19.01;101113.78;4971189;28;96689;-88
2021/06/17 13:19:32;;;;;;;;;;;;;;;37.27;19.91;101108.31;4961731;28;97224;-86
2021/06/17 13:30:52;;;;;;;;;;;;;;;39.69;16.61;101106.03;4968082;28;97338;-87
2021/06/17 13:33:18;;;;;;;;;;;;;;;40.41;15.75;101090.97;4975333;28;100477;-86
2021/06/17 13:35:45;;;;;;;;;;;;;;;40.71;15.69;101089.97;4972897;28;99745;-85
2021/06/17 13:38:18;;;;;;;;;;;;;;;40.44;16.00;101096.00;4969473;28;96565;-88
2021/06/17 13:40:47;;;;;;;;;;;;;;;41.17;15.48;101094.56;4975177;28;96449;-88
2021/06/17 13:43:14;;;;;;;;;;;;;;;41.07;15.68;101092.44;4976068;28;98915;-86
2021/06/17 13:45:41;;;;;;;;;;;;;;;41.90;15.22;101096.44;4975232;28;100463;-87
2021/06/17 13:48:28;;;;;;;;;;;;;;;42.65;14.44;101094.03;4973787;28;96595;-86
2021/06/17 13:53:39;;;;;;;;;;;;;;;42.24;14.40;101098.13;4977383;28;96887;-86
2021/06/17 13:56:06;;;;;;;;;;;;;;;43.48;13.36;101112.28;4979872;28;100355;-89
2021/06/17 14:01:14;;;;;;;;;;;;;;;43.84;12.81;101104.28;5055735;22;99656;-86
2021/06/17 14:12:01;;;;;;;;;;;;;;;46.29;11.10;101087.03;4981293;28;96686;-87
2021/06/17 14:14:31;;;;;;;;;;;;;;;46.17;10.95;101094.03;4971345;28;97674;-87
2021/06/17 14:16:57;;;;;;;;;;;;;;;47.59;10.06;101088.69;4955832;28;97627;-86
2021/06/17 14:19:24;;;;;;;;;;;;;;;49.28;8.76;101076.13;4979297;28;96783;-87
2021/06/17 14:21:56;;;;;;;;;;;;;;;51.08;7.67;101085.38;4973610;28;96867;-89
2021/06/17 14:24:33;;;;;;;;;;;;;;;52.21;7.16;101089.91;4963486;28;97826;-86
2021/06/17 14:29:55;;;;;;;;;;;;;;;51.48;7.13;101091.19;4968405;28;96645;-87
2021/06/17 14:35:10;;;;;;;;;;;;;;;52.32;6.67;101088.47;4962410;28;99048;-86
2021/06/17 14:37:42;;;;;;;;;;;;;;;48.80;8.71;101078.22;4964146;28;98942;-86
2021/06/17 14:42:55;;;;;;;;;;;;;;;48.36;9.12;101081.25;4972070;28;96352;-88
2021/06/17 14:45:26;;;;;;;;;;;;;;;50.97;7.25;101067.91;4951785;28;98005;-88
2021/06/17 14:47:55;;;;;;;;;;;;;;;52.63;6.45;101077.16;4969484;28;101394;-86
2021/06/17 14:53:18;;;;;;;;;;;;;;;52.55;6.31;101084.41;4967323;28;96806;-87
2021/06/17 14:56:05;;;;;;;;;;;;;;;53.22;5.98;101081.25;4964150;28;99116;-87
2021/06/17 14:58:51;;;;;;;;;;;;;;;53.46;6.24;101075.94;4956931;28;98548;-88
2021/06/17 15:01:30;;;;;;;;;;;;;;;55.28;4.85;101075.97;4966197;28;96753;-89
2021/06/17 15:07:11;;;;;;;;;;;;;;;53.30;5.70;101066.31;4972341;28;96882;-89
2021/06/17 15:09:47;;;;;;;;;;;;;;;55.16;4.90;101065.38;4963401;28;99244;-88
2021/06/17 15:12:14;;;;;;;;;;;;;;;55.34;4.68;101066.06;4959228;28;96753;-89
2021/06/17 15:14:40;;;;;;;;;;;;;;;54.47;5.17;101072.34;4965965;28;98191;-87
2021/06/17 15:33:25;;;;;;;;;;;;;;;39.24;15.47;101045.66;4905251;28;96758;-88
2021/06/17 15:38:39;;;;;;;;;;;;;;;39.72;16.76;101040.00;4888960;28;97774;-88
2021/06/17 15:41:10;;;;;;;;;;;;;;;39.36;15.87;101034.66;4922253;28;97835;-88
2021/06/17 15:43:37;;;;;;;;;;;;;;;39.06;15.60;101038.25;4923743;28;96892;-86
2021/06/17 15:46:04;;;;;;;;;;;;;;;38.80;16.01;101043.28;4921426;28;97279;-85
2021/06/17 15:48:33;;;;;;;;;;;;;;;39.51;15.61;101046.13;4924271;28;98388;-88
2021/06/17 15:51:06;;;;;;;;;;;;;;;39.11;15.01;101045.03;4924441;28;100505;-87
2021/06/17 15:53:33;;;;;;;;;;;;;;;38.73;15.06;101039.78;4931263;28;96814;-87
2021/06/17 15:56:02;;;;;;;;;;;;;;;38.54;15.60;101028.72;4911514;28;97168;-87
2021/06/17 15:58:29;;;;;;;;;;;;;;;38.41;15.92;101036.28;4923283;28;98941;-86
2021/06/17 16:01:00;;;;;;;;;;;;;;;38.71;15.48;101041.91;4927318;28;96786;-87
2021/06/17 16:03:28;;;;;;;;;;;;;;;38.75;15.43;101030.16;4933654;28;96676;-87
2021/06/17 16:06:07;;;;;;;;;;;;;;;38.48;15.76;101032.41;4926662;28;96837;-86
2021/06/17 16:08:38;;;;;;;;;;;;;;;38.50;15.85;101030.28;4929997;28;96886;-87
2021/06/17 16:13:46;;;;;;;;;;;;;;;38.17;16.46;101027.84;4918537;28;97025;-86
2021/06/17 16:16:17;;;;;;;;;;;;;;;37.82;16.16;101021.16;4907138;28;97026;-87
2021/06/17 16:18:47;;;;;;;;;;;;;;;38.25;16.36;101024.81;4926261;28;97629;-86
2021/06/17 16:21:16;;;;;;;;;;;;;;;38.33;15.97;101028.34;4939164;28;99532;-85
2021/06/17 16:23:49;;;;;;;;;;;;;;;37.82;16.50;101021.16;4934757;28;96567;-88
2021/06/17 16:28:58;;;;;;;;;;;;;;;37.69;17.11;101024.03;4931931;28;98756;-87
2021/06/17 16:34:05;;;;;;;;;;;;;;;37.31;17.04;101027.72;4938789;28;96626;-86
2021/06/17 16:39:18;;;;;;;;;;;;;;;37.31;17.22;101018.59;4928464;28;100210;-87
2021/06/17 16:41:45;;;;;;;;;;;;;;;37.47;17.85;101010.66;4930896;28;99763;-85
2021/06/17 16:44:14;;;;;;;;;;;;;;;37.36;17.33;101008.59;4923778;28;96717;-86
2021/06/17 16:46:52;;;;;;;;;;;;;;;37.41;17.26;101005.19;4929061;28;98075;-88
2021/06/17 16:49:21;;;;;;;;;;;;;;;37.13;17.41;101004.75;4922484;28;99256;-87
2021/06/17 16:54:53;;;;;;;;;;;;;;;36.68;18.11;101015.78;4914318;28;96784;-90
2021/06/17 17:00:01;;;;;;;;;;;;;;;36.94;17.83;101010.13;4924928;28;99349;-86
2021/06/17 17:02:28;;;;;;;;;;;;;;;36.91;18.00;101012.47;4929266;28;99654;-88
2021/06/17 17:05:06;;;;;;;;;;;;;;;36.96;17.73;100999.72;4932044;28;96756;-86
2021/06/17 17:07:39;;;;;;;;;;;;;;;36.68;18.73;100997.34;4920112;28;96750;-86
2021/06/17 17:15:35;;;;;;;;;;;;;;;36.64;18.16;101004.34;4936598;28;95945;-86
2021/06/17 17:20:45;;;;;;;;;;;;;;;36.58;18.22;101004.34;5027894;23;96857;-85
2021/06/17 17:25:55;;;;;;;;;;;;;;;36.66;18.12;100996.72;4950040;28;96681;-86
2021/06/17 17:28:31;;;;;;;;;;;;;;;36.70;18.35;101002.63;4948091;28;97111;-87
2021/06/17 17:33:34;;;;;;;;;;;;;;;36.25;19.67;100999.81;4996303;22;100199;-86
2021/06/17 17:38:55;;;;;;;;;;;;;;;36.37;20.03;101008.22;4970436;28;96725;-86
2021/06/17 17:41:27;;;;;;;;;;;;;;;36.75;20.82;101010.25;4961037;28;98062;-85
2021/06/17 17:43:59;;;;;;;;;;;;;;;36.48;20.18;101010.31;4975258;28;100029;-87